Time;durP1;ratioP1;P1;durP2;ratioP2;P2;SDS_P1;SDS_P2;PMS_P1;PMS_P2;Temp;Humidity;BMP_temperature;BMP_pressure;BME280_temperature;BME280_humidity;BME280_pressure;Samples;Min_cycle;Max_cycle;Signal;HPM_P1;HPM_P2
2023/02/04 08:29:17;;;;;;;8.27;4.60;;;;;;;1.80;100.00;103739.69;5062469;27;20364;-68
2023/02/04 08:31:43;;;;;;;7.43;4.93;;;;;;;1.89;100.00;103740.56;5051652;28;20206;-67
2023/02/04 08:34:09;;;;;;;8.33;4.83;;;;;;;1.97;100.00;103743.91;5046905;28;20280;-68
2023/02/04 08:36:34;;;;;;;4.60;3.20;;;;;;;2.05;100.00;103740.47;5041308;28;20276;-68
2023/02/04 08:39:00;;;;;;;4.10;2.63;;;;;;;2.13;100.00;103740.53;5040433;28;20197;-69
2023/02/04 08:41:25;;;;;;;3.57;2.70;;;;;;;2.28;100.00;103734.44;5041207;28;20205;-68
2023/02/04 08:43:51;;;;;;;9.67;8.67;;;;;;;2.47;100.00;103743.09;5046786;28;20225;-67
2023/02/04 08:46:16;;;;;;;9.13;7.50;;;;;;;2.63;100.00;103745.47;5044854;28;20255;-68
2023/02/04 08:48:41;;;;;;;6.77;5.50;;;;;;;2.79;100.00;103757.22;5043025;28;20209;-70
2023/02/04 08:51:07;;;;;;;7.63;5.27;;;;;;;2.99;100.00;103743.97;5044289;28;20196;-67
2023/02/04 08:53:32;;;;;;;3.93;2.60;;;;;;;3.12;100.00;103752.88;5037921;28;20192;-67
2023/02/04 08:55:58;;;;;;;3.73;2.10;;;;;;;3.28;100.00;103753.59;5040050;28;20217;-67
2023/02/04 08:58:23;;;;;;;5.50;2.27;;;;;;;3.34;100.00;103758.34;5031514;28;20186;-67
2023/02/04 09:00:48;;;;;;;3.03;2.57;;;;;;;3.50;100.00;103762.47;5036912;28;20543;-68
2023/02/04 09:03:14;;;;;;;3.23;2.00;;;;;;;3.75;100.00;103763.13;5042830;28;20186;-67
2023/02/04 09:05:39;;;;;;;4.13;2.80;;;;;;;4.28;100.00;103762.25;5036906;28;20237;-67
2023/02/04 09:08:05;;;;;;;9.67;5.67;;;;;;;5.59;100.00;103757.19;5039604;28;20275;-69
2023/02/04 09:10:30;;;;;;;2.00;1.60;;;;;;;8.11;100.00;103751.66;5007978;28;20269;-68
2023/02/04 09:12:56;;;;;;;5.77;1.80;;;;;;;10.54;100.00;103757.44;5017444;28;20268;-68
2023/02/04 09:15:23;;;;;;;2.20;1.40;;;;;;;11.77;85.24;103764.59;5002446;28;20214;-66
2023/02/04 09:17:49;;;;;;;2.07;1.20;;;;;;;12.34;75.32;103765.50;5021104;28;20182;-68
2023/02/04 09:20:14;;;;;;;1.90;1.60;;;;;;;13.38;69.39;103767.31;5020428;28;20293;-68
2023/02/04 09:22:40;;;;;;;3.03;1.63;;;;;;;13.35;65.92;103772.28;5022294;28;20707;-68
2023/02/04 09:25:06;;;;;;;1.57;1.27;;;;;;;14.00;63.65;103781.00;5021329;28;20210;-69
2023/02/04 09:27:31;;;;;;;1.57;1.20;;;;;;;14.48;57.20;103776.72;5028230;28;20644;-69
2023/02/04 09:29:57;;;;;;;3.33;1.47;;;;;;;15.50;52.83;103776.63;5040315;28;20554;-67
2023/02/04 09:32:22;;;;;;;3.33;1.80;;;;;;;16.27;49.42;103782.72;5044253;28;20229;-68
2023/02/04 09:34:48;;;;;;;2.27;1.30;;;;;;;16.84;46.52;103775.72;5044470;28;20301;-68
2023/02/04 09:37:13;;;;;;;2.25;1.50;;;;;;;17.53;44.17;103772.47;5043776;28;20210;-68
2023/02/04 09:39:39;;;;;;;2.73;2.00;;;;;;;17.72;42.66;103780.09;5029975;28;20924;-67
2023/02/04 09:42:04;;;;;;;3.20;1.83;;;;;;;18.14;41.87;103761.81;5023170;28;20198;-67
2023/02/04 09:44:30;;;;;;;2.53;1.83;;;;;;;18.68;39.65;103768.03;5023037;28;20211;-68
2023/02/04 09:46:58;;;;;;;2.05;1.50;;;;;;;19.35;38.51;103765.06;5025372;28;20198;-67
2023/02/04 09:49:24;;;;;;;2.08;1.50;;;;;;;20.40;36.25;103760.31;5024812;28;20285;-67
2023/02/04 09:51:51;;;;;;;2.72;1.48;;;;;;;19.04;37.27;103764.94;5027535;28;20210;-68
2023/02/04 09:54:19;;;;;;;2.23;1.50;;;;;;;19.58;38.40;103768.34;5028470;28;20717;-68
2023/02/04 09:56:45;;;;;;;2.45;1.70;;;;;;;20.40;36.77;103769.84;5025426;28;20218;-69
2023/02/04 09:59:18;;;;;;;2.35;1.50;;;;;;;21.00;35.13;103764.44;5027497;28;20217;-69
2023/02/04 10:01:47;;;;;;;1.73;1.40;;;;;;;21.98;33.43;103761.41;5026834;28;20191;-68
2023/02/04 10:04:14;;;;;;;3.10;1.35;;;;;;;22.78;32.30;103758.50;5026243;28;20191;-69
2023/02/04 10:06:43;;;;;;;1.55;1.45;;;;;;;22.87;32.04;103765.63;5031260;28;20242;-67
2023/02/04 10:09:11;;;;;;;1.92;1.60;;;;;;;23.13;31.13;103773.03;5024308;28;20213;-67
2023/02/04 10:11:38;;;;;;;3.35;1.80;;;;;;;24.19;30.26;103762.19;5024830;28;20293;-68
2023/02/04 10:14:04;;;;;;;2.58;1.58;;;;;;;24.33;29.54;103766.72;5027977;28;20202;-68
2023/02/04 10:16:34;;;;;;;1.73;1.60;;;;;;;24.67;28.70;103776.66;5029707;28;20225;-68
2023/02/04 10:19:06;;;;;;;2.85;1.30;;;;;;;25.03;28.69;103769.06;5024990;28;20217;-67
2023/02/04 10:21:35;;;;;;;1.85;1.20;;;;;;;24.68;28.83;103762.69;5026886;28;20609;-67
2023/02/04 10:24:05;;;;;;;3.50;1.70;;;;;;;24.71;28.61;103777.56;5030452;28;20288;-68
2023/02/04 10:26:32;;;;;;;1.98;1.52;;;;;;;24.93;28.52;103775.13;5028560;28;20248;-68
2023/02/04 10:29:12;;;;;;;1.98;1.30;;;;;;;25.88;27.82;103773.88;5000365;28;20237;-66
2023/02/04 10:31:46;;;;;;;3.60;1.50;;;;;;;25.58;26.88;103771.16;5000815;28;20253;-68
2023/02/04 10:34:13;;;;;;;3.42;1.90;;;;;;;25.20;28.02;103777.06;5018201;28;20210;-67
2023/02/04 10:36:40;;;;;;;2.30;1.70;;;;;;;24.86;27.33;103777.69;5011084;28;20184;-67
2023/02/04 10:39:17;;;;;;;1.95;1.33;;;;;;;25.71;27.26;103775.59;5012810;28;20325;-69
2023/02/04 10:42:02;;;;;;;2.47;1.60;;;;;;;25.59;26.41;103774.66;5010181;28;20211;-67
2023/02/04 10:44:30;;;;;;;2.80;1.52;;;;;;;25.42;27.41;103784.22;5011717;28;20207;-69
2023/02/04 10:47:14;;;;;;;1.50;1.38;;;;;;;26.24;26.87;103776.66;5014011;28;20210;-68
2023/02/04 10:49:50;;;;;;;3.10;1.52;;;;;;;26.01;26.48;103775.72;5014094;28;20206;-68
2023/02/04 10:52:18;;;;;;;1.80;1.40;;;;;;;25.32;27.21;103785.03;5011876;28;20194;-67
2023/02/04 10:54:43;;;;;;;2.03;1.53;;;;;;;20.34;33.18;103817.44;4995849;28;20202;-67
2023/02/04 10:57:29;;;;;;;1.47;1.10;;;;;;;17.44;38.76;103830.00;5008540;28;20270;-67
2023/02/04 11:00:00;;;;;;;2.20;1.30;;;;;;;16.47;42.76;103828.44;5006927;28;20241;-68
2023/02/04 11:02:47;;;;;;;2.27;1.33;;;;;;;16.31;46.82;103820.81;5019963;28;20273;-66
2023/02/04 11:05:18;;;;;;;2.37;1.60;;;;;;;14.92;48.44;103835.69;5010633;28;20215;-68
2023/02/04 11:07:46;;;;;;;2.77;1.50;;;;;;;15.42;50.26;103839.09;5013628;28;20273;-67
2023/02/04 11:10:14;;;;;;;1.93;1.27;;;;;;;16.22;44.77;103836.84;5021198;28;20201;-66
2023/02/04 11:12:52;;;;;;;1.60;1.10;;;;;;;15.54;46.19;103837.97;5020503;28;20191;-67
2023/02/04 11:15:38;;;;;;;2.47;1.50;;;;;;;16.10;46.68;103840.53;5018268;28;20210;-69
2023/02/04 11:18:09;;;;;;;2.37;1.40;;;;;;;14.24;49.03;103846.75;5011184;28;20203;-67
2023/02/04 11:20:38;;;;;;;3.50;1.60;;;;;;;13.16;57.29;103844.13;5011692;28;20191;-69
2023/02/04 11:23:31;;;;;;;3.03;1.73;;;;;;;13.73;52.77;103844.81;5018910;28;20623;-66
2023/02/04 11:26:02;;;;;;;2.20;1.37;;;;;;;15.01;49.39;103842.19;5015724;28;20242;-67
2023/02/04 11:28:37;;;;;;;2.73;1.70;;;;;;;17.55;46.34;103826.13;5012631;28;20191;-66
2023/02/04 11:31:13;;;;;;;3.27;1.50;;;;;;;21.14;31.91;103803.88;5012995;28;20214;-66
2023/02/04 11:33:41;;;;;;;1.60;1.20;;;;;;;16.37;38.80;103834.00;5010239;28;20678;-67
2023/02/04 11:36:10;;;;;;;1.20;1.10;;;;;;;14.63;47.48;103841.97;5011432;28;20222;-66
2023/02/04 11:38:37;;;;;;;4.03;1.63;;;;;;;13.64;51.22;103838.25;5014553;28;20218;-67
2023/02/04 11:41:04;;;;;;;1.60;1.10;;;;;;;14.17;48.37;103840.34;5014688;28;20190;-66
2023/02/04 11:43:33;;;;;;;2.07;1.17;;;;;;;14.19;47.45;103837.84;5016498;28;20209;-65
2023/02/04 11:46:10;;;;;;;2.50;1.20;;;;;;;13.36;51.54;103842.69;5007878;28;20215;-65
2023/02/04 11:48:35;;;;;;;2.43;1.20;;;;;;;12.91;55.58;103846.06;5015616;28;20767;-66
2023/02/04 11:51:02;;;;;;;3.10;1.97;;;;;;;18.96;41.67;103823.53;5020269;28;20285;-66
2023/02/04 11:53:32;;;;;;;2.47;1.50;;;;;;;23.20;30.76;103803.66;5009664;28;20199;-67
2023/02/04 11:55:59;;;;;;;2.80;1.53;;;;;;;23.71;29.13;103804.38;5013823;28;20219;-66
2023/02/04 11:58:25;;;;;;;3.38;1.30;;;;;;;23.81;29.06;103824.56;5013189;28;20215;-67
2023/02/04 12:00:53;;;;;;;1.60;1.25;;;;;;;21.26;30.42;103825.00;5017599;28;20244;-65
2023/02/04 12:03:23;;;;;;;3.35;1.30;;;;;;;23.67;28.51;103820.91;5012501;28;20203;-67
2023/02/04 12:05:49;;;;;;;2.10;1.30;;;;;;;24.17;27.56;103816.34;5021213;28;20247;-67
2023/02/04 12:08:21;;;;;;;1.20;1.10;;;;;;;22.13;29.08;103826.97;5016317;28;20249;-67
2023/02/04 12:11:02;;;;;;;3.25;1.48;;;;;;;22.83;29.96;103829.19;5016749;28;20198;-66
2023/02/04 12:13:28;;;;;;;3.50;1.60;;;;;;;22.51;29.45;103830.34;5010612;28;20202;-67
2023/02/04 12:16:01;;;;;;;2.40;1.40;;;;;;;24.44;28.00;103822.72;5018722;28;20210;-65
2023/02/04 12:18:27;;;;;;;1.42;1.23;;;;;;;24.73;27.21;103821.28;5008487;28;20246;-65
2023/02/04 12:20:54;;;;;;;1.85;1.25;;;;;;;21.66;29.26;103835.50;5011364;28;20866;-67
2023/02/04 12:23:20;;;;;;;6.95;4.85;;;;;;;21.16;30.32;103836.97;5008372;28;20207;-67
2023/02/04 12:25:45;;;;;;;2.17;1.50;;;;;;;20.46;31.90;103840.31;5013392;28;20223;-68
2023/02/04 12:28:11;;;;;;;1.58;1.30;;;;;;;22.86;29.76;103831.81;5016117;28;20210;-67
2023/02/04 12:30:36;;;;;;;1.83;1.30;;;;;;;23.25;28.08;103825.53;5012436;28;20226;-67
2023/02/04 12:33:02;;;;;;;2.25;1.60;;;;;;;22.82;29.12;103837.84;5017791;28;20627;-68
2023/02/04 12:35:27;;;;;;;1.50;1.20;;;;;;;21.28;30.68;103847.66;5023746;28;20238;-67
2023/02/04 12:37:52;;;;;;;2.08;1.20;;;;;;;21.11;30.57;103850.72;5019990;28;20714;-66
2023/02/04 12:40:20;;;;;;;1.98;1.55;;;;;;;20.98;30.26;103849.56;5015136;28;20300;-66
2023/02/04 12:42:45;;;;;;;1.38;1.10;;;;;;;22.29;28.85;103840.34;5018790;28;20190;-66
2023/02/04 12:45:13;;;;;;;1.60;1.03;;;;;;;20.39;30.73;103852.28;5018808;28;20252;-66
2023/02/04 12:47:38;;;;;;;2.07;1.40;;;;;;;18.64;32.82;103855.31;5011965;28;20552;-65
2023/02/04 12:50:05;;;;;;;1.77;1.30;;;;;;;18.62;34.61;103853.50;5016645;28;20198;-66
2023/02/04 12:52:31;;;;;;;1.40;1.30;;;;;;;17.70;36.15;103860.44;5017513;28;20198;-65
2023/02/04 12:54:56;;;;;;;2.90;1.30;;;;;;;17.68;36.33;103861.19;5013569;28;20227;-67
2023/02/04 12:57:22;;;;;;;1.70;1.10;;;;;;;17.82;35.62;103860.03;5010754;28;20217;-63
2023/02/04 12:59:48;;;;;;;1.63;1.10;;;;;;;19.92;32.71;103850.03;5014021;28;20206;-67
2023/02/04 13:02:14;;;;;;;3.40;1.13;;;;;;;19.95;31.59;103851.81;5015591;28;20198;-67
2023/02/04 13:04:40;;;;;;;1.33;1.17;;;;;;;19.55;31.24;103859.25;5020452;28;20311;-67
2023/02/04 13:07:06;;;;;;;1.20;1.10;;;;;;;18.34;31.55;103868.94;5017309;28;20217;-66
2023/02/04 13:09:33;;;;;;;1.43;1.30;;;;;;;18.93;32.90;103869.31;5012070;28;20564;-66
2023/02/04 13:11:58;;;;;;;2.03;1.50;;;;;;;18.55;34.77;103878.38;5013537;28;20199;-66
2023/02/04 13:14:24;;;;;;;2.27;1.33;;;;;;;18.12;34.40;103874.13;5013665;28;20282;-66
2023/02/04 13:16:49;;;;;;;1.53;1.13;;;;;;;17.92;34.13;103877.69;5015353;28;20273;-67
2023/02/04 13:19:15;;;;;;;1.40;1.10;;;;;;;17.01;35.74;103879.97;5014528;28;20275;-66
2023/02/04 13:21:40;;;;;;;1.10;0.97;;;;;;;16.82;36.69;103887.78;5016868;28;20692;-66
2023/02/04 13:24:08;;;;;;;2.07;1.20;;;;;;;16.74;37.80;103886.56;5019689;28;20194;-66
2023/02/04 13:26:34;;;;;;;1.50;1.30;;;;;;;17.81;36.68;103881.56;5020464;28;20185;-65
2023/02/04 13:28:59;;;;;;;1.90;1.23;;;;;;;18.01;35.43;103883.22;5026329;28;20655;-66
2023/02/04 13:31:25;;;;;;;2.27;1.27;;;;;;;17.96;35.40;103879.56;5023031;28;20578;-64
2023/02/04 13:33:50;;;;;;;2.33;1.23;;;;;;;18.04;35.95;103884.22;5016042;28;20759;-66
2023/02/04 13:36:16;;;;;;;1.90;1.37;;;;;;;16.83;37.93;103887.88;5017181;28;20229;-66
2023/02/04 13:38:41;;;;;;;2.40;1.10;;;;;;;15.64;39.16;103894.41;5018359;28;20227;-66
2023/02/04 13:41:07;;;;;;;2.57;1.20;;;;;;;15.17;41.87;103888.59;5014840;28;20210;-65
2023/02/04 13:43:32;;;;;;;1.63;1.00;;;;;;;14.38;42.40;103894.75;5014963;28;20348;-67
2023/02/04 13:45:57;;;;;;;1.27;1.10;;;;;;;14.48;43.81;103903.06;5017879;28;20237;-65
2023/02/04 13:48:23;;;;;;;2.60;1.10;;;;;;;14.32;43.88;103904.75;5017923;28;20325;-67
2023/02/04 13:50:52;;;;;;;1.30;1.20;;;;;;;13.67;46.33;103902.81;5008115;28;20222;-67
2023/02/04 13:53:17;;;;;;;1.40;1.20;;;;;;;13.52;50.17;103914.81;5031446;28;20240;-66
2023/02/04 13:55:42;;;;;;;2.10;1.17;;;;;;;13.18;48.61;103912.03;5019484;28;20213;-67
2023/02/04 13:58:08;;;;;;;1.90;1.20;;;;;;;12.81;51.34;103908.06;5016333;28;20218;-66
2023/02/04 14:00:34;;;;;;;3.37;1.30;;;;;;;12.10;53.81;103924.22;5015055;28;20183;-66
2023/02/04 14:02:59;;;;;;;1.53;1.20;;;;;;;11.88;55.65;103917.63;5012380;28;20206;-67
2023/02/04 14:05:25;;;;;;;3.00;1.73;;;;;;;11.67;58.27;103922.31;5018616;28;20245;-67
2023/02/04 14:07:50;;;;;;;1.90;1.57;;;;;;;11.50;60.07;103935.69;5009738;28;20211;-66
2023/02/04 14:10:17;;;;;;;2.87;2.50;;;;;;;11.55;59.90;103930.84;5022292;28;20190;-67
2023/02/04 14:12:42;;;;;;;2.87;1.20;;;;;;;11.25;60.10;103939.09;5012703;28;20197;-66
2023/02/04 14:15:08;;;;;;;2.17;1.10;;;;;;;11.08;62.50;103931.94;5018659;28;20214;-67
2023/02/04 14:17:34;;;;;;;2.57;1.30;;;;;;;10.86;63.56;103934.75;5021962;28;20215;-68
2023/02/04 14:19:59;;;;;;;4.30;3.50;;;;;;;10.68;64.38;103928.38;5015578;28;20184;-67
2023/02/04 14:22:25;;;;;;;1.93;1.10;;;;;;;10.43;65.63;103936.84;5015726;28;20262;-66
2023/02/04 14:24:50;;;;;;;1.67;1.20;;;;;;;10.25;65.68;103938.09;5019433;28;20312;-67
2023/02/04 14:27:16;;;;;;;2.63;1.70;;;;;;;9.90;66.26;103950.06;5017458;28;20269;-67
2023/02/04 14:29:41;;;;;;;2.03;1.30;;;;;;;9.72;68.64;103947.03;5012969;28;20242;-66
2023/02/04 14:32:07;;;;;;;1.40;1.03;;;;;;;9.54;70.67;103948.25;5016526;28;20199;-66
2023/02/04 14:34:32;;;;;;;1.93;1.30;;;;;;;9.33;73.76;103954.38;5016540;28;20222;-66
2023/02/04 14:36:58;;;;;;;3.13;2.83;;;;;;;9.16;74.43;103947.09;5020898;28;20190;-67
2023/02/04 14:39:23;;;;;;;5.13;3.73;;;;;;;8.88;76.74;103945.81;5012766;28;20336;-66
2023/02/04 14:41:49;;;;;;;7.50;5.10;;;;;;;8.72;78.08;103959.84;5017248;28;20187;-65
2023/02/04 14:44:19;;;;;;;2.40;2.20;;;;;;;8.74;78.33;103958.28;5021196;28;20215;-66
2023/02/04 14:46:47;;;;;;;20.90;11.50;;;;;;;8.75;78.59;103950.75;5018752;28;20181;-66
2023/02/04 14:49:14;;;;;;;25.57;14.73;;;;;;;8.65;79.36;103952.47;5015807;28;20329;-66
2023/02/04 14:51:39;;;;;;;62.60;28.47;;;;;;;8.65;79.89;103953.38;5016653;28;20198;-67
2023/02/04 14:54:04;;;;;;;196.07;85.20;;;;;;;8.40;80.29;103954.81;5016011;28;20199;-67
2023/02/04 14:56:30;;;;;;;340.73;132.93;;;;;;;8.21;81.95;103958.34;5017228;28;20215;-67
2023/02/04 14:58:55;;;;;;;214.87;87.47;;;;;;;8.11;85.34;103945.59;5016676;28;20209;-65
2023/02/04 15:01:21;;;;;;;54.40;27.07;;;;;;;7.95;84.93;103947.69;5015248;28;20201;-67
2023/02/04 15:03:46;;;;;;;9.73;4.10;;;;;;;7.89;84.06;103945.56;5020267;28;20194;-66
2023/02/04 15:06:12;;;;;;;5.03;2.57;;;;;;;7.77;87.15;103956.44;5014504;28;20226;-65
2023/02/04 15:08:37;;;;;;;3.03;1.80;;;;;;;7.73;85.84;103956.94;5010941;28;20206;-66
2023/02/04 15:11:03;;;;;;;5.77;3.20;;;;;;;7.51;88.66;103959.41;5015483;28;20228;-66
2023/02/04 15:13:28;;;;;;;11.67;7.13;;;;;;;7.38;89.58;103963.41;5014165;28;20186;-64
2023/02/04 15:15:54;;;;;;;19.63;11.97;;;;;;;7.30;91.72;103962.78;5018535;28;20210;-65
2023/02/04 15:18:19;;;;;;;22.67;9.70;;;;;;;7.19;93.50;103960.97;5016156;28;20242;-66
2023/02/04 15:20:45;;;;;;;38.33;21.50;;;;;;;7.06;96.03;103958.19;5018104;28;20187;-67
2023/02/04 15:23:12;;;;;;;26.67;15.30;;;;;;;6.85;97.13;103960.59;5014989;28;20249;-70
2023/02/04 15:25:38;;;;;;;13.37;8.10;;;;;;;6.61;100.00;103959.41;5015589;28;20990;-66
2023/02/04 15:28:04;;;;;;;6.00;4.10;;;;;;;6.45;100.00;103958.84;5015539;28;20245;-68
2023/02/04 15:30:30;;;;;;;4.00;2.23;;;;;;;6.24;100.00;103959.56;5016350;28;20190;-68
2023/02/04 15:32:55;;;;;;;3.23;1.37;;;;;;;6.11;100.00;103963.44;5019453;28;20201;-67
2023/02/04 15:35:21;;;;;;;3.90;1.90;;;;;;;5.97;100.00;103967.34;5030400;28;20252;-66
2023/02/04 15:37:47;;;;;;;3.47;1.77;;;;;;;5.78;100.00;103971.53;5017934;28;20207;-67
2023/02/04 15:40:13;;;;;;;3.30;1.87;;;;;;;5.71;100.00;103966.63;5015579;28;20203;-67
2023/02/04 15:42:38;;;;;;;7.53;2.70;;;;;;;5.54;100.00;103966.81;5016354;28;20285;-68
2023/02/04 15:45:05;;;;;;;6.30;3.10;;;;;;;5.41;100.00;103955.38;5011714;28;20210;-65
2023/02/04 15:47:30;;;;;;;6.43;3.57;;;;;;;5.32;100.00;103968.16;5019064;28;20650;-67
2023/02/04 15:49:56;;;;;;;6.43;3.07;;;;;;;5.26;100.00;103961.63;5034907;28;20248;-65
2023/02/04 15:52:21;;;;;;;4.27;2.53;;;;;;;5.18;100.00;103977.81;5016551;28;20206;-66
2023/02/04 15:54:47;;;;;;;4.00;3.00;;;;;;;5.13;100.00;103974.88;5014315;28;20234;-68
2023/02/04 15:57:12;;;;;;;3.77;3.00;;;;;;;5.06;100.00;103981.81;5015446;28;20191;-67
2023/02/04 15:59:38;;;;;;;4.53;2.90;;;;;;;4.86;100.00;103982.50;5017535;28;20186;-67
2023/02/04 16:02:03;;;;;;;3.90;2.77;;;;;;;4.84;100.00;103980.56;5011483;28;20559;-67
2023/02/04 16:04:28;;;;;;;7.17;3.10;;;;;;;4.79;100.00;103980.13;5018479;28;20218;-67
2023/02/04 16:06:54;;;;;;;7.43;2.40;;;;;;;4.67;100.00;103981.53;5005793;28;20187;-66
2023/02/04 16:09:19;;;;;;;3.57;2.43;;;;;;;4.61;100.00;103987.69;5014125;28;20187;-66
2023/02/04 16:11:45;;;;;;;7.40;4.37;;;;;;;4.62;100.00;103987.84;5005740;28;20265;-66
2023/02/04 16:14:10;;;;;;;7.90;3.63;;;;;;;4.54;100.00;103990.38;5019083;28;20309;-66
2023/02/04 16:16:36;;;;;;;3.73;1.90;;;;;;;4.51;100.00;103992.66;5016351;28;20199;-67
2023/02/04 16:19:01;;;;;;;6.10;3.53;;;;;;;4.25;100.00;103995.28;5018441;28;20210;-66
2023/02/04 16:21:26;;;;;;;3.43;2.37;;;;;;;4.32;100.00;103990.00;5016298;28;20670;-66
2023/02/04 16:23:52;;;;;;;3.53;2.20;;;;;;;4.36;100.00;103996.25;5020091;28;20670;-67
2023/02/04 16:26:17;;;;;;;4.20;2.23;;;;;;;4.22;100.00;104005.09;5013835;28;20221;-68
2023/02/04 16:28:46;;;;;;;3.50;2.30;;;;;;;4.14;100.00;104005.13;5017327;28;20733;-67
2023/02/04 16:31:12;;;;;;;4.90;2.60;;;;;;;4.17;100.00;104002.88;5016262;28;20652;-67
2023/02/04 16:33:37;;;;;;;5.97;2.40;;;;;;;4.17;100.00;104002.88;5014188;28;20201;-67
2023/02/04 16:36:10;;;;;;;5.53;2.50;;;;;;;4.06;100.00;104001.88;5019864;28;20297;-67
2023/02/04 16:38:38;;;;;;;3.43;2.67;;;;;;;4.02;100.00;104006.47;5013564;28;20211;-66
2023/02/04 16:41:05;;;;;;;4.13;2.80;;;;;;;3.97;100.00;104010.22;5031303;28;20333;-67
2023/02/04 16:43:30;;;;;;;5.63;3.23;;;;;;;3.92;100.00;104008.88;5014541;28;20201;-67
2023/02/04 16:45:55;;;;;;;6.53;3.40;;;;;;;3.81;100.00;104014.53;5013795;28;20215;-66
2023/02/04 16:48:21;;;;;;;3.93;2.60;;;;;;;3.78;100.00;104011.72;5018557;28;20194;-67
2023/02/04 16:50:47;;;;;;;7.40;3.40;;;;;;;3.65;100.00;104017.25;5017570;28;20183;-67
2023/02/04 16:53:14;;;;;;;5.30;2.67;;;;;;;3.63;100.00;104022.91;5021230;28;20233;-67
2023/02/04 16:55:44;;;;;;;2.83;2.30;;;;;;;3.53;100.00;104015.13;5015575;28;20211;-66
2023/02/04 16:58:11;;;;;;;6.27;3.40;;;;;;;3.48;100.00;104019.75;5020097;28;20206;-66
2023/02/04 17:00:40;;;;;;;3.50;2.57;;;;;;;3.40;100.00;104024.81;5013725;28;20200;-67
2023/02/04 17:03:06;;;;;;;6.23;3.20;;;;;;;3.36;100.00;104017.66;5033482;28;20198;-66
2023/02/04 17:05:32;;;;;;;6.13;2.87;;;;;;;3.28;100.00;104021.06;5020707;28;20298;-66
2023/02/04 17:07:58;;;;;;;3.90;2.50;;;;;;;3.21;100.00;104021.19;5022968;28;20257;-66
2023/02/04 17:13:08;;;;;;;4.63;3.10;;;;;;;3.12;100.00;104030.41;5022050;28;20271;-66
2023/02/04 17:15:34;;;;;;;4.20;2.77;;;;;;;3.09;100.00;104023.38;5017861;28;20676;-66
2023/02/04 17:17:59;;;;;;;5.00;2.77;;;;;;;3.11;100.00;104031.13;5024112;28;20202;-67
2023/02/04 17:20:25;;;;;;;4.00;2.63;;;;;;;3.06;100.00;104027.25;5019561;28;20316;-66
2023/02/04 17:22:51;;;;;;;5.57;3.03;;;;;;;3.03;100.00;104026.97;5020923;28;20281;-66
2023/02/04 17:25:17;;;;;;;5.43;2.90;;;;;;;2.95;100.00;104032.88;5020426;28;20623;-66
2023/02/04 17:27:42;;;;;;;5.60;3.63;;;;;;;2.91;100.00;104028.25;5008033;28;20191;-65
2023/02/04 17:30:08;;;;;;;4.40;3.30;;;;;;;2.89;100.00;104020.50;5023697;28;20197;-67
2023/02/04 17:32:34;;;;;;;4.83;3.33;;;;;;;2.87;100.00;104016.03;5017648;28;20191;-66
2023/02/04 17:35:00;;;;;;;6.17;3.23;;;;;;;2.79;100.00;104027.00;5011640;28;20708;-66
2023/02/04 17:37:26;;;;;;;6.13;4.47;;;;;;;2.76;100.00;104027.56;5015399;28;20206;-66
2023/02/04 17:39:52;;;;;;;7.00;5.33;;;;;;;2.72;100.00;104034.72;5014785;28;20551;-65
2023/02/04 17:42:17;;;;;;;10.67;7.47;;;;;;;2.66;100.00;104036.63;5019345;28;20195;-67
2023/02/04 17:44:43;;;;;;;9.77;6.20;;;;;;;2.67;100.00;104039.28;5013807;28;20286;-66
2023/02/04 17:47:08;;;;;;;8.67;6.50;;;;;;;2.70;100.00;104036.19;5020083;28;20205;-67
2023/02/04 17:49:34;;;;;;;5.43;4.40;;;;;;;2.69;100.00;104035.31;5015860;28;20237;-66
2023/02/04 17:51:59;;;;;;;6.93;4.77;;;;;;;2.72;100.00;104037.25;5016937;28;20183;-66
2023/02/04 17:54:26;;;;;;;7.73;4.90;;;;;;;2.74;100.00;104028.16;5015277;28;20558;-66
2023/02/04 17:56:54;;;;;;;7.77;4.87;;;;;;;2.75;100.00;104032.50;5017523;28;20664;-66
2023/02/04 17:59:20;;;;;;;6.77;5.10;;;;;;;2.74;100.00;104025.63;5035111;28;20284;-66
2023/02/04 18:01:45;;;;;;;10.13;6.00;;;;;;;2.76;100.00;104027.56;5016268;28;20206;-66
2023/02/04 18:04:12;;;;;;;7.93;6.10;;;;;;;2.75;100.00;104024.91;5019590;28;20281;-65
2023/02/04 18:06:38;;;;;;;9.57;5.67;;;;;;;2.78;100.00;104022.69;5019068;28;20728;-67
2023/02/04 18:09:13;;;;;;;8.50;4.93;;;;;;;2.81;100.00;104017.94;5020623;28;20272;-66
2023/02/04 18:11:39;;;;;;;6.73;4.27;;;;;;;2.80;100.00;104019.56;5017847;28;20269;-65
2023/02/04 18:14:13;;;;;;;6.83;4.50;;;;;;;2.81;100.00;104020.47;5022378;28;20270;-66
2023/02/04 18:16:39;;;;;;;6.97;4.80;;;;;;;2.78;100.00;104023.59;5011731;28;20198;-66
2023/02/04 18:19:26;;;;;;;6.90;4.40;;;;;;;2.80;100.00;104021.22;5015763;28;20229;-67
2023/02/04 18:21:53;;;;;;;6.57;4.60;;;;;;;2.75;100.00;104025.78;5019419;28;20206;-67
2023/02/04 18:24:34;;;;;;;5.87;4.33;;;;;;;2.75;100.00;104029.97;5013608;28;20528;-67
2023/02/04 18:27:11;;;;;;;9.03;4.23;;;;;;;2.73;100.00;104032.34;5015779;28;20272;-66
2023/02/04 18:29:42;;;;;;;9.73;4.70;;;;;;;2.72;100.00;104035.59;5011875;28;20298;-66
2023/02/04 18:32:41;;;;;;;5.70;3.40;;;;;;;2.73;100.00;104039.94;5022928;28;20200;-66
2023/02/04 18:35:21;;;;;;;4.57;3.20;;;;;;;2.70;100.00;104041.22;4995970;28;20226;-67
2023/02/04 18:37:51;;;;;;;7.77;3.40;;;;;;;2.69;100.00;104042.88;5016199;28;20290;-67
2023/02/04 18:40:29;;;;;;;5.00;3.20;;;;;;;2.69;100.00;104047.03;5014357;28;20187;-66
2023/02/04 18:43:03;;;;;;;3.53;2.70;;;;;;;2.65;100.00;104043.31;5017634;28;20190;-66
2023/02/04 18:45:31;;;;;;;4.80;2.83;;;;;;;2.68;100.00;104041.09;5015629;28;20252;-67
2023/02/04 18:47:59;;;;;;;4.23;2.93;;;;;;;2.67;100.00;104043.47;5010352;28;20179;-67
2023/02/04 18:50:30;;;;;;;3.37;2.60;;;;;;;2.64;100.00;104049.13;5014965;28;20223;-67
2023/02/04 18:53:05;;;;;;;5.43;3.17;;;;;;;2.64;100.00;104040.63;5013829;28;20191;-66
2023/02/04 18:55:39;;;;;;;4.87;2.67;;;;;;;2.62;100.00;104030.34;5018069;28;20601;-66
2023/02/04 18:58:27;;;;;;;4.50;2.73;;;;;;;2.61;100.00;104037.75;5019433;28;20217;-67
2023/02/04 19:01:02;;;;;;;3.60;2.60;;;;;;;2.56;100.00;104042.38;5009564;28;20635;-67
2023/02/04 19:03:30;;;;;;;4.33;2.37;;;;;;;2.58;100.00;104047.59;5015393;28;20197;-66
2023/02/04 19:06:00;;;;;;;3.43;2.10;;;;;;;2.59;100.00;104047.75;5021766;28;20285;-66
2023/02/04 19:08:42;;;;;;;3.43;1.73;;;;;;;2.58;100.00;104048.47;5013108;28;20501;-66
2023/02/04 19:11:26;;;;;;;2.70;1.70;;;;;;;2.57;100.00;104051.75;5013971;28;20226;-66
2023/02/04 19:13:55;;;;;;;5.30;2.20;;;;;;;2.59;100.00;104051.91;5012842;28;20201;-66
2023/02/04 19:16:40;;;;;;;3.93;2.30;;;;;;;2.59;100.00;104052.81;5016584;28;20218;-66
2023/02/04 19:19:34;;;;;;;3.77;2.00;;;;;;;2.61;100.00;104051.31;5023316;28;20210;-66
2023/02/04 19:22:00;;;;;;;3.13;2.03;;;;;;;2.56;100.00;104055.00;5014883;28;20186;-66
2023/02/04 19:24:28;;;;;;;1.93;1.73;;;;;;;2.59;100.00;104057.88;5014059;28;20329;-67
2023/02/04 19:26:58;;;;;;;3.27;1.90;;;;;;;2.57;100.00;104051.75;5013912;28;20262;-67
2023/02/04 19:29:26;;;;;;;3.47;1.87;;;;;;;2.56;100.00;104049.97;5013550;28;20337;-66
2023/02/04 19:31:56;;;;;;;2.87;2.10;;;;;;;2.55;100.00;104043.13;5017450;28;20205;-65
2023/02/04 19:34:32;;;;;;;3.23;2.10;;;;;;;2.56;100.00;104054.09;5027011;28;20847;-66
2023/02/04 19:36:58;;;;;;;3.67;1.80;;;;;;;2.55;100.00;104043.13;5038091;28;20193;-67
2023/02/04 19:39:29;;;;;;;3.17;2.50;;;;;;;2.57;100.00;104040.75;5038363;28;20328;-66
2023/02/04 19:41:56;;;;;;;6.50;2.73;;;;;;;2.57;100.00;104048.34;5037422;28;20315;-67
2023/02/04 19:44:36;;;;;;;5.03;3.17;;;;;;;2.58;100.00;104045.94;5035162;28;20190;-65
2023/02/04 19:47:17;;;;;;;5.90;3.63;;;;;;;2.59;100.00;104049.38;5029723;28;20190;-66
2023/02/04 19:49:42;;;;;;;8.13;4.27;;;;;;;2.58;100.00;104053.53;5038624;28;20608;-66
2023/02/04 19:52:27;;;;;;;7.10;3.30;;;;;;;2.59;100.00;104049.38;5035206;28;20214;-66
2023/02/04 19:54:52;;;;;;;6.43;3.37;;;;;;;2.54;100.00;104051.44;5025606;28;20649;-65
2023/02/04 19:57:24;;;;;;;5.13;3.00;;;;;;;2.54;100.00;104059.03;5037279;28;20204;-66
2023/02/04 19:59:54;;;;;;;4.90;2.33;;;;;;;2.53;100.00;104058.88;5031831;28;20189;-66